Time;durP1;ratioP1;P1;durP2;ratioP2;P2;SDS_P1;SDS_P2;PMS_P1;PMS_P2;Temp;Humidity;BMP_temperature;BMP_pressure;BME280_temperature;BME280_humidity;BME280_pressure;Samples;Min_cycle;Max_cycle;Signal;HPM_P1;HPM_P2
2022/05/27 00:01:37;;;;;;;5.28;4.10;;;;;;;18.82;58.18;95980.00;5084934;28;20020;-83
2022/05/27 00:04:03;;;;;;;5.53;3.88;;;;;;;18.76;58.18;95982.56;5083574;28;20028;-84
2022/05/27 00:06:29;;;;;;;6.80;4.10;;;;;;;18.68;58.02;95981.97;5066016;28;20195;-83
2022/05/27 00:08:54;;;;;;;7.45;4.25;;;;;;;18.63;58.53;95979.88;5085265;28;20028;-83
2022/05/27 00:11:22;;;;;;;4.78;3.70;;;;;;;18.61;58.39;95988.25;5084250;28;20533;-83
2022/05/27 00:13:48;;;;;;;5.07;3.92;;;;;;;18.51;59.05;95987.84;5084294;28;20077;-83
2022/05/27 00:16:13;;;;;;;6.00;4.07;;;;;;;18.54;59.10;95982.00;5066607;28;20051;-83
2022/05/27 00:18:39;;;;;;;6.97;4.15;;;;;;;18.45;59.31;95980.56;5085344;28;20020;-83
2022/05/27 00:21:04;;;;;;;7.15;4.13;;;;;;;18.41;59.60;95981.00;5084602;28;20039;-83
2022/05/27 00:23:30;;;;;;;10.25;4.55;;;;;;;18.37;59.46;95977.06;5066336;28;20036;-83
2022/05/27 00:25:55;;;;;;;8.00;4.13;;;;;;;18.43;59.98;95988.13;5066925;28;20035;-83
2022/05/27 00:28:21;;;;;;;5.38;4.00;;;;;;;18.39;59.97;95976.84;5066441;28;20844;-83
2022/05/27 00:30:46;;;;;;;10.20;4.40;;;;;;;18.34;60.36;95973.91;5084908;28;20024;-83
2022/05/27 00:33:12;;;;;;;6.47;4.13;;;;;;;18.26;60.63;95975.00;5082977;28;20081;-83
2022/05/27 00:35:38;;;;;;;8.02;3.88;;;;;;;18.27;60.52;95974.78;5084729;28;20028;-84
2022/05/27 00:38:03;;;;;;;7.20;4.00;;;;;;;18.28;60.74;95978.34;5083011;28;20024;-83
2022/05/27 00:40:40;;;;;;;8.43;4.03;;;;;;;18.28;60.21;95970.19;5084513;28;20048;-83
2022/05/27 00:43:05;;;;;;;7.47;4.28;;;;;;;18.34;59.96;95972.06;5066670;28;20032;-83
2022/05/27 00:45:33;;;;;;;6.78;4.85;;;;;;;18.33;60.03;95974.97;5082717;28;20023;-83
2022/05/27 00:47:59;;;;;;;5.93;4.05;;;;;;;18.29;60.25;95974.56;5050513;28;20047;-83
2022/05/27 00:50:27;;;;;;;6.22;4.38;;;;;;;18.30;60.53;95965.34;5065889;28;20024;-82
2022/05/27 00:52:52;;;;;;;5.90;4.22;;;;;;;18.29;60.17;95969.13;5066870;28;20036;-83
2022/05/27 00:55:22;;;;;;;7.85;3.97;;;;;;;18.33;60.51;95973.06;5065991;28;20028;-83
2022/05/27 00:57:56;;;;;;;9.57;4.43;;;;;;;18.36;60.31;95966.41;5066588;28;20020;-83
2022/05/27 01:00:23;;;;;;;5.85;3.80;;;;;;;18.35;60.17;95962.84;5083025;28;20097;-83
2022/05/27 01:02:48;;;;;;;5.30;4.10;;;;;;;18.37;60.26;95968.06;5065963;28;20035;-83
2022/05/27 01:05:15;;;;;;;6.43;3.90;;;;;;;18.34;59.93;95969.34;5066712;28;20020;-83
2022/05/27 01:07:40;;;;;;;7.78;4.13;;;;;;;18.28;60.16;95967.47;5084308;28;20020;-82
2022/05/27 01:10:07;;;;;;;6.32;4.30;;;;;;;18.26;60.49;95964.13;5083624;28;20031;-83
2022/05/27 01:12:37;;;;;;;4.80;3.67;;;;;;;18.26;60.46;95964.97;5069889;28;20506;-83
2022/05/27 01:15:21;;;;;;;4.63;3.80;;;;;;;18.27;60.16;95966.63;5086749;28;20494;-83
2022/05/27 01:18:09;;;;;;;7.18;4.05;;;;;;;18.23;60.56;95959.94;5087940;28;20024;-84
2022/05/27 01:20:47;;;;;;;5.72;4.15;;;;;;;18.18;60.51;95956.22;5076682;28;20494;-83
2022/05/27 01:23:30;;;;;;;6.25;4.28;;;;;;;18.16;60.89;95959.97;5087073;28;20020;-83
2022/05/27 01:26:34;;;;;;;6.60;4.15;;;;;;;18.15;60.60;95955.59;5086068;28;20107;-82
2022/05/27 01:29:11;;;;;;;;;;;;;;;18.06;61.03;95954.13;5048017;28;20105;-84
2022/05/27 01:31:43;;;;;;;5.15;4.03;;;;;;;17.95;61.70;95957.47;5086531;28;19916;-84
2022/05/27 01:34:52;;;;;;;5.93;4.28;;;;;;;17.89;60.98;95949.13;5069772;28;20028;-84
2022/05/27 01:37:40;;;;;;;9.27;4.35;;;;;;;17.88;61.23;95952.88;5038208;28;20044;-83
2022/05/27 01:40:11;;;;;;;7.43;4.20;;;;;;;17.88;60.91;95947.47;5086586;28;20490;-84
2022/05/27 01:42:49;;;;;;;7.35;3.97;;;;;;;17.90;60.82;95945.38;5086328;28;20021;-83
2022/05/27 01:45:33;;;;;;;9.52;4.70;;;;;;;17.87;61.13;95943.09;5086623;28;20035;-85
2022/05/27 01:48:00;;;;;;;10.07;4.18;;;;;;;17.85;60.99;95945.16;5087298;28;20813;-85
2022/05/27 01:50:31;;;;;;;7.10;4.13;;;;;;;17.79;61.57;95943.31;5086141;28;20109;-85
2022/05/27 01:53:05;;;;;;;5.82;4.35;;;;;;;17.71;62.02;95944.34;5086241;28;20073;-83
2022/05/27 01:56:02;;;;;;;5.28;3.90;;;;;;;17.67;62.05;95941.22;5087116;28;20020;-83
2022/05/27 01:58:31;;;;;;;7.00;4.32;;;;;;;17.69;61.38;95946.44;5071717;28;20114;-83
2022/05/27 02:00:56;;;;;;;6.03;4.13;;;;;;;17.71;61.82;95940.81;5069156;28;20028;-84
2022/05/27 02:03:22;;;;;;;7.30;5.00;;;;;;;17.71;61.85;95948.94;5068705;28;20035;-85
2022/05/27 02:05:56;;;;;;;9.40;5.18;;;;;;;17.71;61.49;95943.50;5085952;28;20035;-85
2022/05/27 02:08:24;;;;;;;6.18;4.45;;;;;;;17.71;61.27;95941.66;5086716;28;20071;-85
2022/05/27 02:10:54;;;;;;;6.68;4.28;;;;;;;17.75;60.90;95942.06;5069346;28;20448;-83
2022/05/27 02:13:33;;;;;;;7.25;4.53;;;;;;;17.71;61.39;95946.22;5052099;28;20111;-83
2022/05/27 02:15:59;;;;;;;8.52;4.60;;;;;;;17.70;60.60;95944.56;5085951;28;20039;-83
2022/05/27 02:18:27;;;;;;;7.07;4.80;;;;;;;17.69;60.94;95945.59;5085979;28;20020;-83
2022/05/27 02:20:54;;;;;;;9.13;4.75;;;;;;;17.67;60.78;95952.06;5068334;28;20038;-85
2022/05/27 02:23:45;;;;;;;6.00;4.65;;;;;;;17.66;60.83;95949.56;5085704;28;20020;-84
2022/05/27 02:26:16;;;;;;;6.55;4.60;;;;;;;17.63;60.90;95945.41;5073181;28;20048;-84
2022/05/27 02:28:46;;;;;;;6.65;5.10;;;;;;;17.59;61.11;95952.28;5068774;28;20028;-83
2022/05/27 02:31:15;;;;;;;8.52;4.95;;;;;;;17.51;61.57;95955.19;5051686;28;20111;-82
2022/05/27 02:36:30;;;;;;;7.85;5.20;;;;;;;17.49;61.47;95951.88;5071757;28;20245;-84
2022/05/27 02:38:55;;;;;;;8.43;5.80;;;;;;;17.44;61.82;95955.22;5084932;28;20024;-84
2022/05/27 02:41:26;;;;;;;8.88;5.30;;;;;;;17.39;61.75;95952.28;5085043;28;20024;-82
2022/05/27 02:44:29;;;;;;;8.18;4.75;;;;;;;17.34;62.05;95952.91;5084902;28;20470;-83
2022/05/27 02:47:03;;;;;;;6.70;5.13;;;;;;;17.29;62.37;95956.25;5085008;28;20426;-83
2022/05/27 02:49:34;;;;;;;8.65;4.75;;;;;;;17.29;62.15;95956.25;5085462;28;20032;-84
2022/05/27 02:52:09;;;;;;;7.38;4.88;;;;;;;17.30;62.18;95962.47;5068763;28;20039;-84
2022/05/27 02:55:02;;;;;;;7.25;4.97;;;;;;;17.32;62.04;95952.28;5068266;28;20097;-83
2022/05/27 02:57:43;;;;;;;10.75;5.38;;;;;;;17.32;61.91;95946.84;5086071;28;20490;-83
2022/05/27 03:00:32;;;;;;;6.57;5.25;;;;;;;17.31;61.83;95950.63;5084371;28;20040;-83
2022/05/27 03:02:59;;;;;;;7.50;5.13;;;;;;;17.35;61.44;95949.16;5086108;28;20046;-86
2022/05/27 03:05:44;;;;;;;5.38;4.75;;;;;;;17.35;61.64;95953.72;5084115;28;20027;-84
2022/05/27 03:08:49;;;;;;;7.53;4.30;;;;;;;17.38;61.81;95956.88;5084381;28;20406;-83
2022/05/27 03:11:30;;;;;;;6.93;4.43;;;;;;;17.41;61.46;95951.03;5034527;28;20043;-84
2022/05/27 03:14:14;;;;;;;8.02;3.85;;;;;;;17.40;61.41;95953.94;5084021;28;20035;-83
2022/05/27 03:16:58;;;;;;;11.85;4.07;;;;;;;17.38;61.17;95951.44;5085856;28;20490;-83
2022/05/27 03:19:48;;;;;;;7.95;3.92;;;;;;;17.44;61.51;95957.09;5085718;28;20031;-82
2022/05/27 03:22:15;;;;;;;12.00;4.32;;;;;;;17.42;61.70;95955.44;5085407;28;20081;-84
2022/05/27 03:24:59;;;;;;;5.25;4.03;;;;;;;17.46;61.70;95955.00;5084962;28;20077;-84
2022/05/27 03:27:39;;;;;;;8.25;4.45;;;;;;;17.46;61.11;95955.00;5085393;28;20034;-84
2022/05/27 03:30:11;;;;;;;10.93;5.07;;;;;;;17.45;61.46;95951.44;5084104;28;20081;-83
2022/05/27 03:32:39;;;;;;;7.75;4.35;;;;;;;17.51;61.00;95955.19;5067973;28;20032;-84
2022/05/27 03:35:05;;;;;;;9.13;4.47;;;;;;;17.54;60.85;95952.91;5084805;28;20028;-83
2022/05/27 03:37:38;;;;;;;13.43;4.72;;;;;;;17.53;60.85;95956.69;5085778;28;20030;-84
2022/05/27 03:40:15;;;;;;;6.55;4.47;;;;;;;17.53;61.28;95953.97;5067993;28;20459;-83
2022/05/27 03:42:40;;;;;;;10.52;5.18;;;;;;;17.54;60.78;95954.78;5067687;28;20024;-83
2022/05/27 03:45:13;;;;;;;11.15;4.63;;;;;;;17.55;61.16;95959.19;5067688;28;20427;-83
2022/05/27 03:47:39;;;;;;;8.95;4.40;;;;;;;17.60;60.65;95956.69;5083466;28;20505;-86
2022/05/27 03:50:06;;;;;;;8.68;5.03;;;;;;;17.63;60.34;95958.97;5067995;28;20107;-86
2022/05/27 03:52:36;;;;;;;15.13;5.00;;;;;;;17.70;60.36;95960.84;5084272;28;20032;-84
2022/05/27 03:55:01;;;;;;;8.95;4.70;;;;;;;17.72;60.00;95953.31;5068012;28;20115;-88
2022/05/27 03:57:27;;;;;;;10.60;4.70;;;;;;;17.72;60.06;95962.28;5083370;28;20174;-86
2022/05/27 03:59:52;;;;;;;6.07;4.80;;;;;;;17.74;60.75;95956.66;5084164;28;20028;-84
2022/05/27 04:02:18;;;;;;;7.60;4.95;;;;;;;17.82;60.05;95961.88;5067182;28;20457;-84
2022/05/27 04:04:44;;;;;;;11.30;5.10;;;;;;;17.92;60.35;95965.00;5083232;28;20491;-84
2022/05/27 04:07:10;;;;;;;13.07;4.75;;;;;;;18.02;60.30;95969.97;5083939;28;20028;-83
2022/05/27 04:09:36;;;;;;;7.72;4.68;;;;;;;18.11;60.27;95961.63;5083375;28;20035;-84
2022/05/27 04:12:02;;;;;;;6.70;4.63;;;;;;;18.21;59.21;95967.50;5084246;28;20031;-83
2022/05/27 04:14:27;;;;;;;7.63;4.20;;;;;;;18.28;59.23;95967.47;5088463;28;20036;-83
2022/05/27 04:17:27;;;;;;;5.90;4.40;;;;;;;18.37;58.58;95963.47;5085406;28;20031;-87
2022/05/27 04:19:38;;;;;;;9.05;4.88;;;;;;;18.49;58.07;95968.25;5083585;28;20119;-84
2022/05/27 04:22:04;;;;;;;6.85;4.47;;;;;;;18.36;58.87;95964.50;5084728;28;20024;-85
2022/05/27 04:24:30;;;;;;;8.68;4.75;;;;;;;18.37;58.56;95968.06;5084639;28;20027;-84
2022/05/27 04:26:55;;;;;;;9.02;4.38;;;;;;;18.23;58.96;95959.94;5083409;28;20406;-85
2022/05/27 04:29:21;;;;;;;7.43;5.18;;;;;;;18.43;59.51;95967.19;5085749;28;20487;-85
2022/05/27 04:31:46;;;;;;;6.75;4.60;;;;;;;18.72;58.19;95956.00;5049936;28;20078;-86
2022/05/27 04:34:11;;;;;;;9.23;4.90;;;;;;;18.87;57.52;95959.31;5085496;28;20025;-86
2022/05/27 04:36:37;;;;;;;10.00;4.30;;;;;;;19.04;56.83;95956.06;5084797;28;20040;-85
2022/05/27 04:39:02;;;;;;;7.72;4.43;;;;;;;19.25;55.98;95964.97;5066891;28;20032;-83
2022/05/27 04:41:28;;;;;;;6.97;3.85;;;;;;;19.39;55.58;95952.94;5084931;28;20028;-84
2022/05/27 04:43:53;;;;;;;8.43;4.07;;;;;;;19.58;54.85;95957.63;5066375;28;20032;-84
2022/05/27 04:46:19;;;;;;;7.53;4.03;;;;;;;19.52;55.29;95956.63;5088386;28;20225;-86
2022/05/27 04:48:44;;;;;;;6.82;4.32;;;;;;;19.43;55.64;95957.94;5088570;28;20012;-84
2022/05/27 04:51:10;;;;;;;8.40;4.57;;;;;;;19.50;56.43;95956.84;5070688;28;20031;-85
2022/05/27 04:53:35;;;;;;;6.45;3.95;;;;;;;19.75;55.71;95964.16;5088171;28;20031;-85
2022/05/27 04:56:01;;;;;;;22.92;6.15;;;;;;;20.00;54.83;95965.22;5088153;28;20024;-85
2022/05/27 04:58:26;;;;;;;6.40;4.90;;;;;;;20.17;54.14;95960.03;5086793;28;20395;-84
2022/05/27 05:00:51;;;;;;;6.20;3.83;;;;;;;20.21;54.29;95964.00;5087829;28;20100;-85
2022/05/27 05:03:17;;;;;;;6.55;4.35;;;;;;;20.36;54.03;95963.59;5087038;28;20027;-83
2022/05/27 05:05:42;;;;;;;6.72;3.95;;;;;;;20.52;53.11;95969.53;5086589;28;20020;-85
2022/05/27 05:08:38;;;;;;;6.30;4.03;;;;;;;20.67;53.30;95962.88;5088603;28;20020;-85
2022/05/27 05:11:04;;;;;;;9.90;3.60;;;;;;;20.82;52.24;95962.44;5084441;28;20779;-85
2022/05/27 05:13:30;;;;;;;8.60;3.90;;;;;;;20.93;52.13;95958.13;5087130;28;20106;-86
2022/05/27 05:15:57;;;;;;;8.45;3.75;;;;;;;21.09;51.64;95957.50;5069723;28;20248;-86
2022/05/27 05:18:23;;;;;;;5.35;3.78;;;;;;;21.21;51.39;95962.19;5070077;28;20057;-85
2022/05/27 05:20:48;;;;;;;8.15;4.05;;;;;;;21.38;51.23;95956.06;5086801;28;20024;-85
2022/05/27 05:23:14;;;;;;;6.72;4.30;;;;;;;21.52;49.89;95957.53;5088262;28;20024;-85
2022/05/27 05:25:39;;;;;;;6.03;3.97;;;;;;;21.63;50.09;95955.03;5088387;28;20024;-85
2022/05/27 05:28:05;;;;;;;5.32;4.20;;;;;;;21.73;50.22;95953.38;5087586;28;20032;-84
2022/05/27 05:30:30;;;;;;;5.28;3.50;;;;;;;21.82;50.10;95953.91;5069717;28;20401;-88
2022/05/27 05:32:56;;;;;;;12.07;5.13;;;;;;;22.01;49.58;95952.94;5086369;28;20027;-84
2022/05/27 05:35:21;;;;;;;11.00;4.78;;;;;;;22.21;48.97;95947.97;5086592;28;20343;-85
2022/05/27 05:37:47;;;;;;;10.55;4.43;;;;;;;22.29;49.69;95948.69;5087221;28;20028;-85
2022/05/27 05:40:12;;;;;;;8.48;4.30;;;;;;;22.35;48.91;95945.81;5088003;28;20024;-85
2022/05/27 05:42:38;;;;;;;12.13;4.90;;;;;;;22.50;48.89;95955.44;5086988;28;20024;-85
2022/05/27 05:45:04;;;;;;;7.32;4.68;;;;;;;22.62;48.61;95947.22;5087112;28;20305;-86
2022/05/27 05:47:30;;;;;;;9.55;4.82;;;;;;;22.66;47.96;95948.41;5086571;28;20119;-84
2022/05/27 05:49:55;;;;;;;8.48;5.15;;;;;;;22.81;48.00;95955.25;5086941;28;20028;-85
2022/05/27 05:52:20;;;;;;;8.15;4.70;;;;;;;22.87;47.83;95947.97;5087611;28;20031;-85
2022/05/27 05:54:46;;;;;;;10.43;4.45;;;;;;;23.01;47.68;95954.81;5086001;28;20387;-85
2022/05/27 05:57:11;;;;;;;8.40;4.47;;;;;;;22.97;48.03;95945.47;5068174;28;20032;-85
2022/05/27 05:59:40;;;;;;;9.35;5.07;;;;;;;23.13;47.94;95953.94;5087599;28;20031;-86
2022/05/27 06:02:05;;;;;;;7.25;5.05;;;;;;;23.21;47.66;95954.38;5086888;28;20115;-85
2022/05/27 06:04:31;;;;;;;11.85;5.65;;;;;;;23.38;47.25;95953.56;5087514;28;20115;-85
2022/05/27 06:06:57;;;;;;;8.85;5.20;;;;;;;23.46;47.06;95952.38;5051955;28;20035;-85
2022/05/27 06:09:25;;;;;;;9.88;4.82;;;;;;;23.52;46.92;95951.38;5069026;28;20028;-84
2022/05/27 06:11:52;;;;;;;12.40;5.93;;;;;;;23.55;47.44;95948.16;5085782;28;20031;-84
2022/05/27 06:14:17;;;;;;;9.30;4.55;;;;;;;23.68;46.99;95944.25;5068582;28;20055;-84
2022/05/27 06:16:43;;;;;;;7.75;4.53;;;;;;;23.75;46.87;95946.84;5069162;28;20051;-85
2022/05/27 06:19:08;;;;;;;6.70;4.80;;;;;;;23.86;46.37;95942.34;5085128;28;20024;-84
2022/05/27 06:21:34;;;;;;;7.38;4.50;;;;;;;24.04;45.49;95940.41;5085605;28;20387;-84
2022/05/27 06:24:01;;;;;;;9.27;4.85;;;;;;;24.04;46.14;95944.00;5085073;28;20142;-85
2022/05/27 06:26:26;;;;;;;8.82;4.82;;;;;;;23.97;45.43;95939.78;5085278;28;20028;-84
2022/05/27 06:34:26;;;;;;;9.98;4.38;;;;;;;24.32;44.44;95931.28;5071176;28;20429;-85
2022/05/27 06:36:55;;;;;;;11.63;4.10;;;;;;;24.48;44.38;95934.22;5086318;28;20028;-89
2022/05/27 06:39:21;;;;;;;8.00;3.90;;;;;;;24.49;43.37;95932.31;5085236;28;20074;-86
2022/05/27 06:41:46;;;;;;;6.88;2.88;;;;;;;24.57;41.71;95929.94;5086139;28;20028;-85
2022/05/27 06:44:12;;;;;;;5.70;3.03;;;;;;;24.66;41.31;95929.50;5086138;28;20024;-86
2022/05/27 06:46:37;;;;;;;5.57;3.05;;;;;;;24.71;40.81;95923.25;5084449;28;20078;-85
2022/05/27 06:49:04;;;;;;;6.30;3.25;;;;;;;24.72;41.08;95925.75;5085018;28;20028;-86
2022/05/27 06:51:30;;;;;;;8.30;3.47;;;;;;;24.79;41.37;95928.28;5068045;28;20490;-83
2022/05/27 06:53:56;;;;;;;7.28;3.30;;;;;;;24.89;40.09;95930.34;5086184;28;20023;-85
2022/05/27 06:56:21;;;;;;;6.20;3.00;;;;;;;24.98;39.76;95931.56;5086186;28;20371;-85
2022/05/27 06:58:47;;;;;;;13.63;3.40;;;;;;;25.01;41.14;95924.72;5085556;28;20027;-84
2022/05/27 07:01:12;;;;;;;5.18;2.72;;;;;;;25.03;40.86;95915.16;5067868;28;20403;-85
2022/05/27 07:03:38;;;;;;;7.53;3.50;;;;;;;25.10;40.98;95914.94;5067488;28;20035;-84
2022/05/27 07:06:07;;;;;;;7.47;3.70;;;;;;;25.14;40.86;95904.28;5085722;28;20028;-85
2022/05/27 07:08:33;;;;;;;5.28;3.28;;;;;;;25.29;39.50;95901.66;5067625;28;20024;-85
2022/05/27 07:10:59;;;;;;;4.47;2.83;;;;;;;25.34;39.09;95897.34;5085591;28;20131;-85
2022/05/27 07:13:24;;;;;;;7.32;3.10;;;;;;;25.37;39.30;95891.31;5084218;28;20028;-87
2022/05/27 07:15:49;;;;;;;9.70;3.33;;;;;;;25.44;38.60;95889.16;5084010;28;20473;-86
2022/05/27 07:18:15;;;;;;;4.85;2.60;;;;;;;25.32;38.55;95889.34;5051105;28;20012;-88
2022/05/27 07:20:41;;;;;;;5.88;2.88;;;;;;;25.43;40.07;95893.00;5085011;28;20409;-84
2022/05/27 07:23:07;;;;;;;6.63;3.40;;;;;;;25.39;40.21;95886.41;5085839;28;20069;-85
2022/05/27 07:25:35;;;;;;;11.07;3.20;;;;;;;25.34;40.64;95872.63;5084058;28;20137;-85
2022/05/27 07:28:04;;;;;;;9.50;3.25;;;;;;;25.34;39.80;95880.88;5085317;28;20110;-85
2022/05/27 07:30:30;;;;;;;5.25;3.22;;;;;;;25.46;39.10;95866.94;5068462;28;20032;-85
2022/05/27 07:32:55;;;;;;;6.07;2.90;;;;;;;25.56;37.71;95867.03;5086066;28;20024;-84
2022/05/27 07:35:21;;;;;;;7.43;2.50;;;;;;;25.65;37.32;95868.22;5087115;28;20024;-84
2022/05/27 07:37:47;;;;;;;5.32;2.70;;;;;;;25.66;37.03;95863.56;5087903;28;20108;-86
2022/05/27 07:40:12;;;;;;;7.85;2.72;;;;;;;25.68;37.39;95853.16;5069285;28;20109;-85
2022/05/27 07:42:38;;;;;;;7.38;3.08;;;;;;;25.79;37.09;95865.03;5085998;28;20024;-85
2022/05/27 07:45:05;;;;;;;5.28;3.00;;;;;;;25.77;37.29;95862.56;5067430;28;20426;-86
2022/05/27 07:47:32;;;;;;;10.30;3.10;;;;;;;25.86;37.10;95865.63;5083409;28;20522;-84
2022/05/27 07:49:57;;;;;;;3.92;2.95;;;;;;;25.91;37.08;95864.81;5084954;28;20043;-85
2022/05/27 07:52:23;;;;;;;6.57;2.58;;;;;;;25.97;36.84;95852.78;5085355;28;20035;-84
2022/05/27 07:54:50;;;;;;;4.22;2.35;;;;;;;26.02;35.87;95863.78;5083845;28;20120;-85
2022/05/27 07:57:25;;;;;;;7.95;2.60;;;;;;;26.04;35.74;95855.28;5085642;28;20020;-85
2022/05/27 08:00:07;;;;;;;6.70;2.80;;;;;;;26.11;35.33;95866.03;5083410;28;20031;-87
2022/05/27 08:02:33;;;;;;;;;;;;;;;25.95;37.15;95857.72;5083829;28;20506;-88
2022/05/27 08:04:58;;;;;;;5.75;3.00;;;;;;;25.70;38.12;95850.97;5085165;28;19912;-85
2022/05/27 08:07:26;;;;;;;4.75;2.65;;;;;;;25.83;38.01;95848.88;5066882;28;20024;-85
2022/05/27 08:09:51;;;;;;;5.07;2.60;;;;;;;25.98;38.90;95851.69;5084929;28;20025;-87
2022/05/27 08:12:17;;;;;;;6.20;2.65;;;;;;;26.11;37.36;95844.06;5084655;28;20070;-85
2022/05/27 08:14:42;;;;;;;5.20;2.83;;;;;;;26.05;37.38;95843.22;5083456;28;20020;-86
2022/05/27 08:17:08;;;;;;;5.68;3.00;;;;;;;26.26;38.31;95838.63;5083160;28;20503;-86
2022/05/27 08:19:33;;;;;;;4.65;2.92;;;;;;;26.28;37.26;95832.84;5084543;28;20024;-83
2022/05/27 08:21:59;;;;;;;6.82;3.13;;;;;;;26.31;38.09;95840.56;5087336;28;20485;-85
2022/05/27 08:24:24;;;;;;;7.03;2.92;;;;;;;26.45;37.07;95829.94;5088892;28;20020;-85
2022/05/27 08:26:49;;;;;;;3.75;2.10;;;;;;;26.48;37.25;95834.06;5087401;28;20024;-84
2022/05/27 08:29:15;;;;;;;5.97;2.50;;;;;;;26.56;35.19;95832.72;5088726;28;20073;-88
2022/05/27 08:31:40;;;;;;;4.85;2.30;;;;;;;26.55;35.67;95831.91;5087813;28;20024;-86
2022/05/27 08:39:35;;;;;;;7.78;2.47;;;;;;;26.66;34.96;95822.56;5088864;28;20031;-86
2022/05/27 08:42:06;;;;;;;5.10;2.60;;;;;;;26.69;34.92;95814.88;5053288;28;20555;-85
2022/05/27 08:45:00;;;;;;;6.53;2.20;;;;;;;26.76;34.92;95810.75;5088836;28;20028;-85
2022/05/27 08:47:30;;;;;;;5.45;2.10;;;;;;;26.82;35.55;95808.03;5086618;28;20393;-85
2022/05/27 08:50:33;;;;;;;6.18;2.90;;;;;;;26.87;34.15;95808.88;5070351;28;20391;-87
2022/05/27 08:53:17;;;;;;;6.13;2.50;;;;;;;26.87;34.70;95799.78;5064226;28;20403;-86
2022/05/27 09:01:21;;;;;;;8.93;3.00;;;;;;;26.97;34.83;95797.03;5087372;28;20129;-86
2022/05/27 09:03:51;;;;;;;4.75;2.10;;;;;;;26.91;33.44;95804.47;5086642;28;20468;-85
2022/05/27 09:06:18;;;;;;;4.97;2.03;;;;;;;26.82;35.18;95799.78;5070368;28;20036;-85
2022/05/27 09:08:43;;;;;;;5.55;2.10;;;;;;;26.91;34.54;95798.97;5069677;28;20091;-86
2022/05/27 09:11:38;;;;;;;7.47;2.58;;;;;;;26.99;34.08;95797.59;5088210;28;20036;-87
2022/05/27 09:14:14;;;;;;;5.18;2.83;;;;;;;27.07;34.95;95789.94;5015405;28;20045;-85
2022/05/27 09:16:46;;;;;;;8.00;2.50;;;;;;;26.97;33.40;95788.78;5086611;28;20027;-85
2022/05/27 09:19:20;;;;;;;8.77;2.33;;;;;;;27.05;34.00;95786.63;5086840;28;20028;-85
2022/05/27 09:21:58;;;;;;;7.15;2.80;;;;;;;27.17;34.40;95781.69;5087703;28;20105;-86
2022/05/27 09:24:30;;;;;;;8.35;2.20;;;;;;;27.25;34.76;95778.38;5088138;28;20105;-86
2022/05/27 09:27:20;;;;;;;7.57;2.67;;;;;;;27.30;33.97;95773.94;5087487;28;20152;-86
2022/05/27 09:29:58;;;;;;;7.00;2.40;;;;;;;27.35;33.58;95773.94;5086360;28;20051;-86
2022/05/27 09:32:31;;;;;;;9.90;2.30;;;;;;;27.39;34.43;95772.31;5086638;28;20422;-84
2022/05/27 09:34:58;;;;;;;7.53;2.95;;;;;;;27.44;33.35;95766.78;5085932;28;20032;-86
2022/05/27 09:37:31;;;;;;;5.95;2.40;;;;;;;27.53;33.30;95767.06;5069787;28;20061;-84
2022/05/27 09:39:57;;;;;;;5.75;2.35;;;;;;;27.49;31.98;95761.28;5086212;28;20028;-85
2022/05/27 09:42:30;;;;;;;6.97;2.60;;;;;;;27.44;33.75;95758.50;5086024;28;20046;-85
2022/05/27 09:44:57;;;;;;;9.82;2.40;;;;;;;27.55;33.52;95758.50;5086586;28;20028;-86
2022/05/27 09:47:23;;;;;;;6.38;2.35;;;;;;;27.52;32.86;95757.97;5086699;28;20101;-84
2022/05/27 09:50:04;;;;;;;8.50;2.30;;;;;;;27.53;32.44;95747.78;5052774;28;20032;-84
2022/05/27 09:52:31;;;;;;;6.15;2.25;;;;;;;27.49;33.03;95744.75;5085972;28;20405;-84
2022/05/27 09:54:59;;;;;;;10.73;2.88;;;;;;;27.50;33.69;95740.88;5069414;28;20032;-84
2022/05/27 09:57:30;;;;;;;5.95;2.58;;;;;;;27.58;32.72;95742.25;5085677;28;20515;-85
2022/05/27 09:59:57;;;;;;;26.33;2.60;;;;;;;27.62;32.77;95742.50;5085829;28;20111;-84
2022/05/27 10:02:29;;;;;;;8.48;2.67;;;;;;;27.65;33.37;95731.75;5085672;28;20082;-86
2022/05/27 10:04:55;;;;;;;6.45;2.10;;;;;;;27.65;33.81;95728.16;5086058;28;20024;-86
2022/05/27 10:07:43;;;;;;;7.00;2.63;;;;;;;27.74;33.37;95732.06;5087225;28;20032;-85
2022/05/27 10:10:21;;;;;;;6.88;2.50;;;;;;;27.71;31.57;95724.31;5085410;28;20035;-85
2022/05/27 10:12:47;;;;;;;4.53;2.30;;;;;;;27.66;32.44;95727.09;5087099;28;20413;-85
2022/05/27 10:15:29;;;;;;;6.20;1.92;;;;;;;27.69;32.20;95718.28;5085685;28;20497;-85
2022/05/27 10:17:54;;;;;;;5.70;2.08;;;;;;;27.67;31.53;95720.50;5085342;28;20028;-85
2022/05/27 10:20:31;;;;;;;4.57;2.10;;;;;;;27.66;32.00;95716.06;5068706;28;20035;-85
2022/05/27 10:22:59;;;;;;;5.43;2.30;;;;;;;27.61;31.45;95713.31;5085641;28;20020;-85
2022/05/27 10:25:39;;;;;;;6.50;2.25;;;;;;;27.69;32.06;95717.47;5086532;28;20032;-86
2022/05/27 10:28:05;;;;;;;5.88;2.15;;;;;;;27.68;30.15;95702.84;5068734;28;20039;-86
2022/05/27 10:30:33;;;;;;;4.05;1.92;;;;;;;27.70;31.94;95703.41;5085041;28;20020;-84
2022/05/27 10:33:16;;;;;;;8.68;2.50;;;;;;;27.83;31.80;95703.91;5086766;28;20349;-84
2022/05/27 10:35:42;;;;;;;7.88;1.90;;;;;;;27.91;30.99;95695.06;5068802;28;20024;-85
2022/05/27 10:38:46;;;;;;;13.23;2.50;;;;;;;27.85;31.47;95690.66;5068294;28;20016;-83
2022/05/27 10:41:24;;;;;;;7.47;2.38;;;;;;;27.81;31.45;95684.09;5085101;28;20032;-86
2022/05/27 10:44:17;;;;;;;5.53;2.13;;;;;;;27.81;29.59;95684.09;5085934;28;20036;-83
2022/05/27 10:46:55;;;;;;;12.10;2.90;;;;;;;27.75;31.20;95681.34;5084554;28;20038;-84
2022/05/27 10:49:40;;;;;;;9.20;2.13;;;;;;;27.86;31.51;95670.25;5085995;28;20401;-85
2022/05/27 10:52:11;;;;;;;5.25;2.00;;;;;;;28.01;31.38;95677.66;5084986;28;20111;-88
2022/05/27 10:54:59;;;;;;;10.80;2.37;;;;;;;28.16;30.05;95662.97;5086177;28;20454;-86
2022/05/27 11:03:59;;;;;;;9.35;2.22;;;;;;;28.38;30.36;95658.97;5004073;28;20560;-88
2022/05/27 11:06:43;;;;;;;4.50;2.28;;;;;;;28.42;30.19;95657.31;5075833;28;20040;-88
2022/05/27 11:09:26;;;;;;;7.97;2.65;;;;;;;28.53;30.11;95644.25;5084589;28;20024;-87
2022/05/27 11:12:26;;;;;;;8.63;3.15;;;;;;;28.62;29.12;95641.69;5084744;28;20529;-85
2022/05/27 11:15:12;;;;;;;9.25;2.55;;;;;;;28.63;29.85;95632.34;5084596;28;20539;-86
2022/05/27 11:17:54;;;;;;;7.57;2.80;;;;;;;28.74;30.19;95636.63;5084118;28;20040;-85
2022/05/27 11:20:39;;;;;;;10.50;2.63;;;;;;;28.86;30.06;95629.91;5068213;28;20031;-86
2022/05/27 11:23:11;;;;;;;10.43;2.92;;;;;;;28.97;29.72;95625.97;5085675;28;20046;-85
2022/05/27 11:26:13;;;;;;;11.35;3.35;;;;;;;29.06;29.39;95612.38;5085222;28;20028;-83
2022/05/27 11:28:48;;;;;;;7.63;3.00;;;;;;;29.13;29.66;95606.50;5085385;28;20266;-84
2022/05/27 11:31:27;;;;;;;8.40;2.60;;;;;;;29.18;29.38;95595.38;5083756;28;20024;-84
2022/05/27 11:34:19;;;;;;;6.57;2.78;;;;;;;29.27;29.17;95600.25;5084122;28;20024;-86
2022/05/27 11:36:54;;;;;;;6.18;2.70;;;;;;;29.33;28.50;95599.06;5083981;28;20028;-89
2022/05/27 11:39:57;;;;;;;10.68;3.20;;;;;;;29.28;29.05;95590.88;5084024;28;20343;-85
2022/05/27 11:42:55;;;;;;;7.45;2.83;;;;;;;29.29;29.04;95587.00;5032664;28;20479;-85
2022/05/27 11:45:26;;;;;;;7.72;2.70;;;;;;;29.35;28.54;95583.03;5083758;28;20028;-85
2022/05/27 11:48:06;;;;;;;7.32;2.83;;;;;;;29.37;28.50;95578.84;5083116;28;20986;-86
2022/05/27 11:51:07;;;;;;;7.10;2.42;;;;;;;29.49;29.78;95570.16;5084176;28;20413;-84
2022/05/27 11:53:51;;;;;;;7.60;2.47;;;;;;;29.61;28.89;95558.72;5083530;28;20036;-87
2022/05/27 11:56:54;;;;;;;13.60;3.45;;;;;;;29.72;28.24;95558.56;5084978;28;20028;-84
2022/05/27 11:59:30;;;;;;;6.63;3.00;;;;;;;29.86;28.79;95547.59;5083709;28;20051;-84
2022/05/27 12:01:57;;;;;;;7.55;3.15;;;;;;;29.97;28.49;95554.59;5083328;28;20020;-84
2022/05/27 12:04:44;;;;;;;7.60;2.28;;;;;;;30.06;28.26;95540.94;5067159;28;20482;-84
2022/05/27 12:07:12;;;;;;;6.18;2.42;;;;;;;30.11;27.30;95551.91;5066854;28;20044;-87
2022/05/27 12:10:02;;;;;;;7.28;2.15;;;;;;;30.13;27.87;95543.34;5084749;28;20062;-85
2022/05/27 12:12:33;;;;;;;8.18;2.65;;;;;;;30.15;27.36;95543.03;5068556;28;20112;-87
2022/05/27 12:15:02;;;;;;;6.72;2.30;;;;;;;30.18;27.16;95525.84;5067163;28;20040;-84
2022/05/27 12:17:40;;;;;;;9.10;2.90;;;;;;;30.27;28.27;95525.97;5083788;28;20118;-86
2022/05/27 12:20:07;;;;;;;9.05;2.53;;;;;;;30.29;27.04;95520.97;5067175;28;20450;-86